Terminal Aerodrome Forecast
Issued by NWS Medford, OR

Home | Current Version | Previous Version | Text Only | Print | Product List | Glossary On
Versions: 1 2 3 4 5 6 7 8 9 10 11 12 13 14 15 16 17 18 19 20 21
000
FTUS46 KMFR 260100 AAA
TAFMFR
TAF AMD
KMFR 260105Z 2601/2624 21008KT P6SM -SHRA FEW040 OVC060
     FM260900 VRB03KT P6SM -SHRA OVC030
     FM261800 VRB03KT P6SM VCSH BKN035 OVC060=

USA.gov is the U.S. government's official web portal to all federal, state and local government web resources and services.